createdAt,value
2018-08-07T00:01:10.044Z,46.60
2018-08-07T00:04:13.075Z,47.02
2018-08-07T00:07:16.056Z,47.98
2018-08-07T00:10:20.394Z,48.58
2018-08-07T00:13:23.367Z,48.15
2018-08-07T00:16:26.387Z,48.01
2018-08-07T00:19:29.499Z,47.87
2018-08-07T00:22:32.655Z,48.00
2018-08-07T00:25:35.757Z,48.17
2018-08-07T00:28:50.982Z,49.06
2018-08-07T00:32:15.053Z,49.02
2018-08-07T00:35:19.259Z,49.57
2018-08-07T00:38:22.292Z,49.83
2018-08-07T00:41:25.250Z,50.02
2018-08-07T00:44:28.293Z,50.81
2018-08-07T00:47:31.439Z,51.01
2018-08-07T00:50:34.577Z,49.62
2018-08-07T00:53:37.743Z,48.70
2018-08-07T00:56:40.863Z,49.02
2018-08-07T00:59:43.806Z,50.31
2018-08-07T01:02:46.776Z,49.26
2018-08-07T01:05:49.763Z,50.32
2018-08-07T01:08:52.716Z,51.62
2018-08-07T01:11:55.706Z,51.29
2018-08-07T01:14:58.667Z,50.93
2018-08-07T01:18:01.959Z,51.43
2018-08-07T01:21:05.176Z,51.18
2018-08-07T01:24:08.299Z,49.68
2018-08-07T01:27:11.300Z,50.33
2018-08-07T01:30:19.666Z,51.00
2018-08-07T01:33:25.631Z,52.73
2018-08-07T01:36:28.584Z,51.88
2018-08-07T01:39:31.668Z,52.15
2018-08-07T01:42:34.741Z,51.49
2018-08-07T01:45:37.785Z,51.56
2018-08-07T01:48:40.934Z,51.64
2018-08-07T01:51:43.936Z,51.62
2018-08-07T01:54:46.881Z,51.64
2018-08-07T01:57:49.875Z,51.47
2018-08-07T02:00:52.778Z,51.96
2018-08-07T02:03:55.693Z,51.14
2018-08-07T02:06:58.674Z,51.17
2018-08-07T02:10:01.990Z,49.24
2018-08-07T02:13:05.488Z,48.74
2018-08-07T02:16:08.470Z,49.66
2018-08-07T02:19:11.549Z,49.60
2018-08-07T02:22:14.515Z,49.90
2018-08-07T02:25:18.671Z,49.46
2018-08-07T02:28:21.596Z,51.70
2018-08-07T02:31:24.562Z,51.39
2018-08-07T02:34:27.464Z,46.85
2018-08-07T02:37:30.413Z,49.26
2018-08-07T02:40:33.412Z,52.05
2018-08-07T02:43:36.485Z,50.82
2018-08-07T02:46:39.769Z,51.13
2018-08-07T02:49:42.834Z,51.58
2018-08-07T02:52:45.952Z,50.76
2018-08-07T02:55:48.936Z,51.41
2018-08-07T02:58:51.925Z,52.63
2018-08-07T03:01:54.935Z,52.01
2018-08-07T03:04:57.874Z,52.30
2018-08-07T03:08:00.824Z,52.23
2018-08-07T03:11:04.109Z,53.19
2018-08-07T03:14:07.456Z,53.88
2018-08-07T03:17:10.493Z,53.97
2018-08-07T03:20:13.517Z,54.22
2018-08-07T03:23:16.527Z,53.50
2018-08-07T03:26:19.490Z,52.73
2018-08-07T03:29:22.410Z,52.50
2018-08-07T03:32:25.353Z,52.63
2018-08-07T03:35:28.287Z,52.97
2018-08-07T03:38:31.241Z,53.28
2018-08-07T03:41:34.200Z,52.32
2018-08-07T03:44:37.209Z,53.50
2018-08-07T03:47:40.365Z,54.27
2018-08-07T03:50:43.376Z,53.88
2018-08-07T03:53:46.360Z,52.55
2018-08-07T03:56:49.313Z,53.17
2018-08-07T03:59:52.256Z,53.49
2018-08-07T04:02:55.197Z,53.45
2018-08-07T04:05:58.136Z,53.49
2018-08-07T04:09:01.118Z,54.40
2018-08-07T04:12:04.269Z,54.11
2018-08-07T04:15:10.193Z,54.37
2018-08-07T04:18:13.176Z,55.97
2018-08-07T04:21:16.177Z,55.53
2018-08-07T04:24:19.107Z,54.82
2018-08-07T04:27:22.062Z,55.59
2018-08-07T04:30:25.046Z,55.81
2018-08-07T04:33:27.980Z,55.99
2018-08-07T04:36:30.969Z,55.70
2018-08-07T04:39:34.043Z,56.00
2018-08-07T04:42:37.997Z,55.18
2018-08-07T04:45:41.125Z,55.65
2018-08-07T04:48:44.124Z,55.16
2018-08-07T04:51:47.124Z,56.56
2018-08-07T04:54:50.085Z,56.34
2018-08-07T04:57:53.093Z,56.47
2018-08-07T05:00:57.525Z,56.55
2018-08-07T05:04:00.475Z,57.27
2018-08-07T05:07:03.573Z,55.98
2018-08-07T05:10:11.592Z,56.30
2018-08-07T05:13:14.535Z,56.58
2018-08-07T05:16:17.490Z,56.68
2018-08-07T05:19:20.420Z,56.70
2018-08-07T05:22:23.344Z,57.70
2018-08-07T05:25:26.228Z,59.69
2018-08-07T05:28:29.228Z,59.69
2018-08-07T05:31:32.216Z,59.22
2018-08-07T05:34:35.265Z,57.96
2018-08-07T05:37:38.511Z,57.97
2018-08-07T05:40:41.584Z,59.46
2018-08-07T05:43:44.582Z,58.54
2018-08-07T05:46:47.602Z,58.97
2018-08-07T05:49:50.629Z,58.89
2018-08-07T05:52:53.562Z,59.85
2018-08-07T05:55:56.477Z,59.75
2018-08-07T05:58:59.503Z,59.83
2018-08-07T06:02:02.883Z,60.25
2018-08-07T06:05:06.818Z,60.42
2018-08-07T06:08:09.920Z,61.44
2018-08-07T06:11:12.967Z,60.95
2018-08-07T06:14:15.966Z,61.24
2018-08-07T06:17:19.026Z,61.01
2018-08-07T06:20:22.029Z,61.50
2018-08-07T06:23:24.993Z,61.56
2018-08-07T06:26:27.955Z,61.40
2018-08-07T06:29:31.080Z,62.00
2018-08-07T06:32:40.855Z,61.81
2018-08-07T06:35:43.914Z,62.01
2018-08-07T06:38:46.942Z,62.07
2018-08-07T06:41:49.922Z,62.08
2018-08-07T06:44:52.840Z,61.60
2018-08-07T06:47:55.721Z,61.88
2018-08-07T06:50:58.720Z,61.10
2018-08-07T06:54:01.754Z,61.28
2018-08-07T06:57:05.357Z,61.27
2018-08-07T07:00:13.141Z,61.32
2018-08-07T07:03:16.090Z,61.00
2018-08-07T07:06:18.997Z,60.19
2018-08-07T07:09:22.052Z,59.68
2018-08-07T07:12:25.788Z,58.74
2018-08-07T07:15:29.700Z,58.02
2018-08-07T07:18:33.284Z,56.46
2018-08-07T07:21:36.353Z,55.72
2018-08-07T07:24:39.401Z,54.63
2018-08-07T07:27:42.514Z,53.95
2018-08-07T07:30:45.664Z,53.50
2018-08-07T07:33:48.737Z,52.92
2018-08-07T07:36:54.865Z,52.76
2018-08-07T07:39:58.145Z,53.13
2018-08-07T07:43:01.662Z,52.97
2018-08-07T07:46:05.192Z,54.47
2018-08-07T07:49:08.427Z,55.04
2018-08-07T07:52:11.512Z,54.44
2018-08-07T07:55:16.262Z,54.68
2018-08-07T07:58:19.333Z,56.56
2018-08-07T08:01:22.474Z,52.65
2018-08-07T08:04:25.562Z,55.80
2018-08-07T08:07:28.616Z,57.75
2018-08-07T08:10:31.689Z,57.82
2018-08-07T08:13:34.949Z,55.45
2018-08-07T08:16:38.354Z,54.13
2018-08-07T08:19:41.470Z,56.13
2018-08-07T08:22:44.577Z,54.14
2018-08-07T08:25:47.653Z,55.71
2018-08-07T08:28:51.104Z,55.54
2018-08-07T08:31:54.088Z,55.09
2018-08-07T08:34:57.314Z,54.08
2018-08-07T08:38:00.347Z,55.04
2018-08-07T08:41:03.467Z,49.17
2018-08-07T08:44:07.116Z,45.09
2018-08-07T08:47:10.226Z,44.22
2018-08-07T08:50:15.459Z,45.71
2018-08-07T08:53:18.533Z,42.06
2018-08-07T08:57:46.137Z,48.90
2018-08-07T09:00:49.189Z,40.93
2018-08-07T09:03:52.661Z,38.24
2018-08-07T09:06:55.645Z,35.86
2018-08-07T09:09:58.810Z,38.00
2018-08-07T09:13:02.265Z,40.85
2018-08-07T09:16:05.489Z,36.65
2018-08-07T09:19:08.669Z,37.79
2018-08-07T09:22:11.767Z,37.08
2018-08-07T09:25:14.982Z,32.35
2018-08-07T09:28:17.921Z,34.12
2018-08-07T09:31:20.977Z,34.56
2018-08-07T09:34:23.988Z,32.86
2018-08-07T09:37:26.957Z,34.95
2018-08-07T09:40:30.754Z,33.36
2018-08-07T09:43:33.917Z,31.22
2018-08-07T09:46:37.343Z,34.21
2018-08-07T09:49:40.657Z,32.50
2018-08-07T09:52:44.167Z,33.79
2018-08-07T09:55:47.180Z,36.62
2018-08-07T09:58:50.194Z,34.49
2018-08-07T10:01:59.677Z,32.46
2018-08-07T10:05:02.855Z,34.05
2018-08-07T10:08:05.981Z,31.65
2018-08-07T10:11:09.138Z,30.97
2018-08-07T10:14:12.343Z,31.38
2018-08-07T10:17:15.449Z,31.42
2018-08-07T10:20:18.694Z,35.65
2018-08-07T10:23:21.898Z,30.67
2018-08-07T10:26:25.031Z,31.55
2018-08-07T10:29:28.141Z,30.78
2018-08-07T10:32:31.351Z,31.39
2018-08-07T10:35:34.542Z,30.10
2018-08-07T10:38:37.722Z,31.81
2018-08-07T10:41:41.514Z,29.20
2018-08-07T10:44:44.619Z,30.58
2018-08-07T10:47:47.828Z,30.99
2018-08-07T10:50:50.923Z,29.54
2018-08-07T10:53:54.126Z,31.03
2018-08-07T10:56:57.330Z,30.30
2018-08-07T11:00:00.477Z,32.09
2018-08-07T11:03:03.755Z,29.75
2018-08-07T11:06:06.880Z,30.80
2018-08-07T11:09:13.363Z,31.64
2018-08-07T11:12:16.548Z,28.00
2018-08-07T11:15:23.559Z,28.84
2018-08-07T11:18:26.650Z,28.50
2018-08-07T11:21:29.841Z,30.71
2018-08-07T11:24:33.046Z,28.68
2018-08-07T11:27:36.160Z,29.19
2018-08-07T11:30:39.299Z,29.57
2018-08-07T11:33:42.488Z,28.06
2018-08-07T11:36:45.626Z,28.85
2018-08-07T11:39:48.827Z,29.04
2018-08-07T11:42:52.691Z,30.96
2018-08-07T11:45:55.850Z,28.96
2018-08-07T11:48:59.064Z,26.73
2018-08-07T11:52:02.227Z,28.27
2018-08-07T11:55:05.802Z,27.63
2018-08-07T11:58:08.967Z,28.33
2018-08-07T12:01:12.186Z,27.52
2018-08-07T12:04:15.374Z,25.95
2018-08-07T12:07:18.521Z,26.60
2018-08-07T12:10:21.726Z,25.62
2018-08-07T12:13:24.909Z,25.31
2018-08-07T12:16:28.090Z,26.39
2018-08-07T12:19:31.328Z,24.02
2018-08-07T12:22:34.609Z,25.77
2018-08-07T12:25:37.995Z,24.08
2018-08-07T12:28:41.180Z,23.97
2018-08-07T12:31:44.472Z,25.85
2018-08-07T12:34:47.746Z,25.17
2018-08-07T12:37:51.026Z,27.27
2018-08-07T12:40:54.241Z,24.42
2018-08-07T12:43:57.640Z,25.32
2018-08-07T12:47:01.132Z,23.62
2018-08-07T12:50:07.179Z,25.02
2018-08-07T12:53:11.787Z,23.03
2018-08-07T12:56:15.814Z,25.82
2018-08-07T12:59:19.413Z,24.80
2018-08-07T13:02:25.486Z,25.80
2018-08-07T13:05:29.754Z,26.26
2018-08-07T13:08:33.303Z,26.01
2018-08-07T13:11:37.001Z,28.52
2018-08-07T13:14:40.481Z,26.24
2018-08-07T13:17:44.526Z,25.09
2018-08-07T13:20:48.061Z,27.11
2018-08-07T13:23:51.876Z,25.44
2018-08-07T13:26:55.069Z,25.07
2018-08-07T13:29:58.594Z,25.63
2018-08-07T13:33:02.048Z,26.91
2018-08-07T13:36:05.799Z,25.39
2018-08-07T13:39:10.349Z,27.47
2018-08-07T13:42:15.434Z,24.40
2018-08-07T13:45:23.602Z,26.90
2018-08-07T13:48:27.884Z,25.39
2018-08-07T13:51:31.278Z,25.90
2018-08-07T13:54:34.726Z,26.89
2018-08-07T13:57:38.501Z,28.87
2018-08-07T14:00:42.758Z,27.94
2018-08-07T14:03:46.161Z,27.41
2018-08-07T14:06:49.904Z,26.75
2018-08-07T14:09:53.309Z,28.34
2018-08-07T14:12:56.754Z,27.58
2018-08-07T14:16:00.227Z,26.59
2018-08-07T14:19:03.732Z,27.29
2018-08-07T14:22:07.935Z,25.79
2018-08-07T14:25:22.109Z,25.32
2018-08-07T14:28:25.835Z,26.13
2018-08-07T14:31:29.353Z,25.44
2018-08-07T14:34:32.633Z,24.32
2018-08-07T14:37:36.017Z,23.62
2018-08-07T14:40:39.565Z,25.19
2018-08-07T14:43:42.781Z,25.04
2018-08-07T14:46:46.072Z,25.44
2018-08-07T14:49:49.264Z,25.32
2018-08-07T14:52:52.689Z,22.62
2018-08-07T14:55:55.927Z,22.56
2018-08-07T14:58:59.151Z,23.05
2018-08-07T15:02:02.402Z,22.92
2018-08-07T15:05:05.746Z,23.43
2018-08-07T15:08:09.109Z,23.50
2018-08-07T15:11:12.331Z,23.95
2018-08-07T15:14:15.530Z,20.43
2018-08-07T15:17:18.736Z,22.79
2018-08-07T15:20:24.875Z,22.23
2018-08-07T15:23:28.046Z,23.75
2018-08-07T15:26:31.184Z,22.01
2018-08-07T15:29:34.422Z,22.59
2018-08-07T15:32:38.158Z,22.76
2018-08-07T15:35:41.272Z,21.91
2018-08-07T15:38:44.454Z,21.38
2018-08-07T15:41:47.632Z,22.10
2018-08-07T15:44:50.819Z,21.96
2018-08-07T15:47:54.098Z,23.78
2018-08-07T15:50:57.246Z,23.50
2018-08-07T15:54:00.469Z,22.50
2018-08-07T15:57:03.533Z,21.77
2018-08-07T16:00:10.234Z,21.84
2018-08-07T16:03:13.489Z,22.52
2018-08-07T16:06:16.727Z,22.88
2018-08-07T16:09:20.082Z,23.32
2018-08-07T16:12:23.179Z,24.07
2018-08-07T16:15:26.424Z,24.00
2018-08-07T16:18:29.585Z,23.78
2018-08-07T16:21:32.781Z,25.13
2018-08-07T16:24:35.967Z,25.74
2018-08-07T16:27:40.706Z,25.10
2018-08-07T16:30:43.930Z,26.02
2018-08-07T16:33:47.139Z,26.40
2018-08-07T16:36:50.396Z,24.21
2018-08-07T16:39:53.517Z,25.55
2018-08-07T16:42:56.628Z,24.01
2018-08-07T16:45:59.731Z,24.09
2018-08-07T16:49:02.969Z,25.17
2018-08-07T16:52:06.132Z,24.52
2018-08-07T16:55:10.209Z,24.02
2018-08-07T16:58:13.342Z,24.93
2018-08-07T17:01:16.513Z,24.37
2018-08-07T17:04:19.918Z,25.64
2018-08-07T17:07:23.365Z,24.63
2018-08-07T17:10:28.345Z,26.60
2018-08-07T17:13:31.863Z,24.75
2018-08-07T17:16:35.565Z,26.08
2018-08-07T17:19:38.881Z,27.03
2018-08-07T17:22:43.110Z,25.50
2018-08-07T17:25:46.659Z,23.97
2018-08-07T17:28:50.812Z,25.84
2018-08-07T17:31:55.103Z,26.29
2018-08-07T17:34:58.898Z,26.40
2018-08-07T17:38:02.182Z,25.08
2018-08-07T17:41:05.657Z,27.79
2018-08-07T17:44:09.295Z,26.68
2018-08-07T17:47:13.120Z,29.28
2018-08-07T17:50:20.041Z,26.41
2018-08-07T17:53:23.510Z,26.51
2018-08-07T17:56:27.333Z,26.57
2018-08-07T17:59:31.065Z,29.45
2018-08-07T18:02:34.864Z,27.84
2018-08-07T18:05:38.754Z,29.97
2018-08-07T18:08:42.598Z,32.65
2018-08-07T18:11:46.262Z,31.63
2018-08-07T18:14:49.751Z,34.39
2018-08-07T18:17:53.378Z,35.95
2018-08-07T18:20:57.324Z,33.94
2018-08-07T18:24:00.965Z,35.89
2018-08-07T18:27:04.544Z,38.28
2018-08-07T18:30:11.432Z,37.15
2018-08-07T18:33:15.134Z,38.05
2018-08-07T18:36:18.928Z,36.85
2018-08-07T18:39:22.522Z,39.01
2018-08-07T18:42:25.910Z,40.40
2018-08-07T18:45:29.544Z,38.53
2018-08-07T18:48:33.397Z,39.65
2018-08-07T18:51:37.252Z,38.98
2018-08-07T18:55:12.792Z,40.01
2018-08-07T18:58:16.223Z,40.61
2018-08-07T19:01:19.327Z,40.26
2018-08-07T19:04:22.473Z,40.14
2018-08-07T19:07:25.856Z,40.12
2018-08-07T19:10:29.579Z,40.34
2018-08-07T19:13:32.885Z,40.21
2018-08-07T19:16:36.445Z,39.41
2018-08-07T19:19:39.562Z,39.99
2018-08-07T19:22:43.374Z,39.96
2018-08-07T19:25:47.525Z,40.41
2018-08-07T19:28:50.826Z,41.23
2018-08-07T19:31:54.685Z,41.15
2018-08-07T19:34:58.178Z,41.46
2018-08-07T19:38:01.544Z,43.34
2018-08-07T19:41:06.571Z,42.98
2018-08-07T19:44:10.495Z,43.24
2018-08-07T19:47:14.200Z,42.21
2018-08-07T19:50:19.732Z,41.86
2018-08-07T19:53:23.432Z,40.20
2018-08-07T19:56:26.564Z,39.86
2018-08-07T19:59:30.148Z,39.84
2018-08-07T20:02:33.830Z,40.08
2018-08-07T20:05:39.961Z,39.96
2018-08-07T20:08:43.482Z,41.49
2018-08-07T20:11:46.840Z,40.56
2018-08-07T20:14:49.888Z,40.85
2018-08-07T20:17:54.044Z,40.28
2018-08-07T20:20:57.118Z,40.41
2018-08-07T20:24:00.259Z,41.76
2018-08-07T20:27:03.814Z,40.83
2018-08-07T20:30:14.612Z,38.95
2018-08-07T20:33:17.576Z,39.89
2018-08-07T20:36:21.163Z,39.59
2018-08-07T20:39:24.240Z,41.22
2018-08-07T20:42:27.329Z,38.50
2018-08-07T20:45:30.634Z,38.23
2018-08-07T20:48:35.880Z,38.57
2018-08-07T20:51:39.118Z,37.32
2018-08-07T20:54:42.328Z,38.51
2018-08-07T20:57:45.509Z,39.05
2018-08-07T21:00:48.766Z,38.67
2018-08-07T21:03:51.975Z,39.50
2018-08-07T21:06:55.139Z,37.00
2018-08-07T21:09:58.229Z,38.31
2018-08-07T21:13:01.403Z,39.51
2018-08-07T21:16:04.588Z,40.06
2018-08-07T21:19:07.861Z,40.47
2018-08-07T21:22:11.045Z,39.79
2018-08-07T21:25:16.781Z,38.50
2018-08-07T21:28:26.704Z,40.38
2018-08-07T21:31:29.922Z,40.43
2018-08-07T21:34:33.024Z,41.28
2018-08-07T21:37:36.115Z,41.32
2018-08-07T21:40:39.214Z,40.55
2018-08-07T21:43:42.296Z,41.15
2018-08-07T21:46:45.397Z,41.54
2018-08-07T21:49:55.237Z,40.34
2018-08-07T21:52:58.349Z,41.57
2018-08-07T21:56:01.456Z,42.82
2018-08-07T21:59:05.066Z,39.62
2018-08-07T22:02:08.186Z,39.33
2018-08-07T22:05:11.429Z,39.79
2018-08-07T22:08:15.694Z,41.49
2018-08-07T22:11:18.850Z,40.65
2018-08-07T22:14:21.903Z,41.45
2018-08-07T22:17:24.987Z,40.12
2018-08-07T22:20:28.110Z,41.31
2018-08-07T22:23:31.199Z,39.89
2018-08-07T22:26:34.309Z,39.50
2018-08-07T22:29:37.400Z,39.75
2018-08-07T22:32:40.530Z,39.73
2018-08-07T22:35:43.710Z,39.95
2018-08-07T22:38:46.849Z,40.22
2018-08-07T22:41:49.931Z,41.96
2018-08-07T22:44:53.031Z,41.64
2018-08-07T22:47:56.113Z,41.76
2018-08-07T22:50:59.148Z,41.25
2018-08-07T22:54:02.314Z,42.16
2018-08-07T22:57:09.645Z,41.62
2018-08-07T23:00:16.929Z,41.48
2018-08-07T23:03:19.926Z,42.73
2018-08-07T23:06:23.082Z,44.10
2018-08-07T23:09:26.146Z,43.01
2018-08-07T23:12:29.225Z,44.82
2018-08-07T23:15:32.346Z,43.88
2018-08-07T23:18:35.468Z,45.95
2018-08-07T23:21:38.569Z,44.83
2018-08-07T23:24:41.768Z,45.55
2018-08-07T23:27:44.893Z,45.31
2018-08-07T23:30:47.986Z,46.22
2018-08-07T23:33:51.137Z,45.46
2018-08-07T23:36:54.199Z,46.86
2018-08-07T23:39:57.360Z,46.58
2018-08-07T23:43:00.457Z,46.72
2018-08-07T23:46:03.585Z,46.22
2018-08-07T23:49:06.733Z,47.00
2018-08-07T23:52:09.826Z,47.29
2018-08-07T23:55:12.908Z,44.22
2018-08-07T23:58:15.988Z,45.99
